Patterson, CA (95363)

8:16 AM PST on January 26, 2015 (GMT -0800)
Patterson, Ca | Change Station
CLOSE
Current Station
Personal Weather Station
Location: Patterson, CA
Elevation: 93 ft
Nearby Weather Stations

Elev 93 ft 37.44 °N, 121.09 °W | Updated 1 minute ago

Overcast
Overcast
39.2 °F
Feels Like 39 °F
N
0.0
Wind Variable Wind from North
Gusts 0.0 mph

Today
High -- | Low -- °F
--% Chance of Precip.
Yesterday
High -- | Low -- °F
Precip. -- in
7:12 AM 5:22 PM
Waxing Crescent, 44% visible
Pressure 30.07 in
Visibility 0.2 miles
Clouds
Windchill 39 °F
Dew Point 34 °F
Humidity 83%
Rainfall 0.00 in
Snow Depth Not available.
UV Not available.
Pollen 6.10 out of 12
Air Quality Not available.
Flu Activity Not available.
METAR KMOD 261553Z 33004KT M1/4SM FG VV002 03/03 A3007 RMK AO2 SNB47E51 SLP183 P0000 T00330033

More Conditions Fewer Conditions

Pressure 30.07 in
Visibility 0.2 miles
Clouds
Windchill 39 °F
Dew Point 34 °F
Humidity 83%
Rainfall 0.00 in
Snow Depth Not available.
UV Not available.
Pollen 6.10 out of 12
Air Quality Not available.
Flu Activity Not available.
METAR KMOD 261553Z 33004KT M1/4SM FG VV002 03/03 A3007 RMK AO2 SNB47E51 SLP183 P0000 T00330033

More Conditions Fewer Conditions

Nowcast | as of 6:30 am PST on January 26, 2015

Patches of dense fog will persist across the Central Valley through the early morning hours. Motorists and commuters are advised to be alert for sudden changes in visibility and slow down if dense fog is encountered. Improving visibility is expected by late morning.

×

10-Day Weather Forecast

Almanac

Astronomy

Jan. 26, 2015 Rise Set
Actual Time
Civil Twilight
Nautical Twilight
Astronomical Twilight
Moon
Length of Visible Light
Length of Day
Tomorrow will be .
, % of the Moon is Illuminated

Today's Extremes

State Highs State Lows

Community

WunderPhotos

Upload Photos

1,790,264 photos uploaded!

WunderBlogs® & News

Nearby

Air Quality

  Air Quality AQ Index Pollutant
Not available.

Snow Depth

Station Depth Elevation

Earthquake Activity

City Distance Mag. Time & Date
Minimum magnitude displayed is 2.5.

Coastal Water Temperatures

Place Temperature

Nearby Weather Stations